Time;durP1;ratioP1;P1;durP2;ratioP2;P2;SDS_P1;SDS_P2;PMS_P1;PMS_P2;Temp;Humidity;BMP_temperature;BMP_pressure;BME280_temperature;BME280_humidity;BME280_pressure;Samples;Min_cycle;Max_cycle;Signal;HPM_P1;HPM_P2
2022/12/02 00:01:11;;;;;;;84.75;38.65;;;5.80;56.90;;;;;;5012968;28;20396;-71
2022/12/02 00:03:37;;;;;;;93.03;40.77;;;5.90;55.90;;;;;;5014013;28;20418;-71
2022/12/02 00:06:03;;;;;;;94.70;43.70;;;5.80;55.60;;;;;;5013624;28;20472;-71
2022/12/02 00:08:31;;;;;;;88.97;41.55;;;5.80;58.80;;;;;;5013420;28;20377;-71
2022/12/02 00:11:00;;;;;;;88.75;40.22;;;5.80;58.70;;;;;;5012791;28;20415;-71
2022/12/02 00:13:43;;;;;;;85.85;39.35;;;5.70;59.30;;;;;;5013194;28;20407;-71
2022/12/02 00:16:26;;;;;;;92.93;42.83;;;5.70;57.00;;;;;;5013274;28;20405;-72
2022/12/02 00:18:53;;;;;;;96.18;44.83;;;5.80;57.50;;;;;;5013593;28;20454;-71
2022/12/02 00:21:20;;;;;;;88.53;39.63;;;5.70;59.00;;;;;;5012786;28;20396;-71
2022/12/02 00:23:46;;;;;;;97.67;43.23;;;5.70;58.20;;;;;;5013780;28;20482;-71
2022/12/02 00:26:11;;;;;;;91.25;43.33;;;5.70;59.60;;;;;;5014170;28;20933;-71
2022/12/02 00:28:37;;;;;;;84.25;38.50;;;5.80;59.40;;;;;;5014907;28;20385;-71
2022/12/02 00:31:03;;;;;;;92.57;42.83;;;5.70;57.70;;;;;;5014590;28;20802;-71
2022/12/02 00:33:29;;;;;;;97.55;42.75;;;5.50;60.50;;;;;;5012318;28;20388;-71
2022/12/02 00:35:55;;;;;;;91.95;40.72;;;5.70;58.50;;;;;;5012242;28;20433;-72
2022/12/02 00:38:20;;;;;;;95.83;42.47;;;5.60;59.40;;;;;;5012938;28;20389;-72
2022/12/02 00:40:46;;;;;;;103.03;45.60;;;5.50;60.20;;;;;;5012986;28;20416;-72
2022/12/02 00:48:40;;;;;;;96.57;40.92;;;5.70;58.00;;;;;;5012962;28;20377;-72
2022/12/02 00:51:05;;;;;;;90.87;41.40;;;5.60;58.10;;;;;;5012287;28;20385;-73
2022/12/02 00:53:31;;;;;;;97.00;43.47;;;5.70;56.20;;;;;;5012484;28;20476;-71
2022/12/02 00:55:56;;;;;;;110.97;44.43;;;5.80;56.50;;;;;;5012360;28;20397;-70
2022/12/02 00:58:22;;;;;;;101.43;43.70;;;5.70;57.20;;;;;;5011782;28;20419;-71
2022/12/02 01:00:48;;;;;;;105.20;43.78;;;5.70;57.50;;;;;;5027607;28;20393;-70
2022/12/02 01:03:14;;;;;;;111.50;47.30;;;5.50;57.90;;;;;;5011626;28;20421;-71
2022/12/02 01:05:40;;;;;;;97.70;44.05;;;5.40;62.30;;;;;;5012567;28;20456;-71
2022/12/02 01:08:05;;;;;;;98.15;41.38;;;5.60;59.20;;;;;;5012290;28;20425;-72
2022/12/02 01:10:31;;;;;;;93.55;42.92;;;5.60;55.40;;;;;;5012203;28;20399;-72
2022/12/02 01:12:56;;;;;;;101.95;43.00;;;5.70;55.70;;;;;;5011835;28;20384;-71
2022/12/02 01:15:25;;;;;;;96.78;42.95;;;5.60;55.60;;;;;;5012221;28;20393;-70
2022/12/02 01:17:51;;;;;;;97.40;43.75;;;5.60;57.20;;;;;;5012315;28;20923;-72
2022/12/02 01:20:16;;;;;;;87.97;40.50;;;5.40;60.80;;;;;;5011803;28;20400;-71
2022/12/02 01:22:42;;;;;;;81.87;38.37;;;5.40;61.40;;;;;;5011353;28;20885;-71
2022/12/02 01:25:08;;;;;;;71.43;35.00;;;5.40;60.10;;;;;;5011802;28;20526;-71
2022/12/02 01:27:33;;;;;;;68.28;32.90;;;5.60;56.50;;;;;;5011815;28;20392;-71
2022/12/02 01:29:59;;;;;;;73.65;34.35;;;5.60;54.40;;;;;;5011901;28;20870;-71
2022/12/02 01:32:24;;;;;;;67.47;33.27;;;5.60;54.30;;;;;;5012036;28;20443;-72
2022/12/02 01:34:50;;;;;;;71.70;34.53;;;5.60;55.70;;;;;;5012065;28;20397;-72
2022/12/02 01:37:16;;;;;;;62.20;31.10;;;5.60;55.60;;;;;;5012083;28;20387;-72
2022/12/02 01:39:41;;;;;;;60.67;30.63;;;5.60;53.50;;;;;;5013607;28;20419;-72
2022/12/02 01:42:08;;;;;;;61.00;31.13;;;5.60;52.00;;;;;;5013051;28;20408;-72
2022/12/02 01:44:35;;;;;;;63.87;30.07;;;5.50;53.80;;;;;;5016443;28;20385;-71
2022/12/02 01:47:01;;;;;;;57.80;28.58;;;5.60;50.50;;;;;;5016877;28;20389;-72
2022/12/02 01:49:27;;;;;;;64.20;31.00;;;5.60;51.40;;;;;;5018928;28;20400;-72
2022/12/02 01:51:52;;;;;;;52.65;26.80;;;5.60;51.20;;;;;;5017433;28;20385;-72
2022/12/02 01:54:18;;;;;;;63.80;31.30;;;5.60;49.40;;;;;;5013385;28;20396;-72
2022/12/02 01:56:43;;;;;;;60.97;30.98;;;5.50;52.20;;;;;;5011586;28;20438;-71
2022/12/02 01:59:12;;;;;;;58.60;28.88;;;5.60;53.00;;;;;;5012186;28;20789;-72
2022/12/02 02:01:37;;;;;;;54.83;27.67;;;5.60;51.80;;;;;;5010951;28;20413;-72
2022/12/02 02:04:03;;;;;;;51.83;27.40;;;5.60;49.30;;;;;;5011550;28;20391;-71
2022/12/02 02:06:32;;;;;;;55.38;27.80;;;5.70;50.00;;;;;;5011416;28;20455;-72
2022/12/02 02:08:58;;;;;;;58.45;30.40;;;5.60;49.80;;;;;;5011745;28;20484;-71
2022/12/02 02:11:24;;;;;;;57.60;27.45;;;5.60;52.10;;;;;;5010731;28;20953;-72
2022/12/02 02:13:50;;;;;;;51.13;24.48;;;5.60;49.00;;;;;;5011825;28;20412;-72
2022/12/02 02:16:16;;;;;;;52.28;27.35;;;5.50;48.30;;;;;;5011774;28;20460;-71
2022/12/02 02:18:42;;;;;;;56.40;27.52;;;5.50;50.00;;;;;;5011659;28;20373;-71
2022/12/02 02:21:13;;;;;;;57.83;27.50;;;5.40;50.50;;;;;;5010864;28;20897;-72
2022/12/02 02:23:39;;;;;;;57.80;29.13;;;5.40;53.00;;;;;;5012004;28;20389;-72
2022/12/02 02:26:05;;;;;;;56.50;27.95;;;5.40;52.60;;;;;;5011624;28;20416;-71
2022/12/02 02:28:32;;;;;;;59.47;27.90;;;5.40;53.60;;;;;;5011673;28;21045;-72
2022/12/02 02:30:57;;;;;;;52.75;26.55;;;5.50;51.70;;;;;;5011511;28;20411;-72
2022/12/02 02:33:26;;;;;;;55.00;26.73;;;5.60;49.60;;;;;;5011971;28;20392;-72
2022/12/02 02:35:52;;;;;;;53.60;26.67;;;5.50;51.30;;;;;;5011594;28;20389;-71
2022/12/02 02:38:22;;;;;;;58.53;29.88;;;5.60;50.60;;;;;;5011001;28;20711;-72
2022/12/02 02:40:49;;;;;;;62.05;30.20;;;5.50;52.20;;;;;;5011297;28;20370;-73
2022/12/02 02:43:15;;;;;;;56.13;27.52;;;5.60;53.80;;;;;;5011529;28;20471;-71
2022/12/02 02:45:42;;;;;;;58.05;29.73;;;5.60;51.20;;;;;;5012238;28;20453;-72
2022/12/02 02:48:10;;;;;;;56.88;29.50;;;5.60;52.40;;;;;;5011979;28;20389;-72
2022/12/02 02:50:39;;;;;;;59.13;28.25;;;5.60;52.10;;;;;;5012126;28;20416;-71
2022/12/02 02:53:06;;;;;;;53.17;26.58;;;5.50;52.10;;;;;;5011413;28;20893;-72
2022/12/02 02:55:32;;;;;;;62.90;30.45;;;5.50;50.00;;;;;;5012116;28;20463;-70
2022/12/02 02:58:18;;;;;;;59.78;31.25;;;5.50;53.20;;;;;;5031719;23;20436;-78
2022/12/02 03:00:52;;;;;;;58.17;27.70;;;5.40;54.80;;;;;;5027126;28;20391;-78
2022/12/02 03:03:21;;;;;;;56.08;28.95;;;5.50;51.50;;;;;;5028733;28;20423;-77
2022/12/02 03:05:48;;;;;;;65.13;31.55;;;5.50;51.80;;;;;;5026481;28;20381;-77
2022/12/02 03:08:14;;;;;;;66.97;33.53;;;5.40;53.70;;;;;;5021065;28;20471;-77
2022/12/02 03:10:40;;;;;;;69.47;33.80;;;5.40;54.80;;;;;;5022807;28;20460;-77
2022/12/02 03:13:06;;;;;;;70.45;34.97;;;5.40;56.70;;;;;;5019576;28;20920;-78
2022/12/02 03:15:32;;;;;;;70.88;34.17;;;5.30;58.90;;;;;;5023169;28;20384;-77
2022/12/02 03:17:58;;;;;;;79.50;36.63;;;5.40;55.50;;;;;;5021253;28;20389;-77
2022/12/02 03:20:24;;;;;;;81.30;38.90;;;5.50;53.90;;;;;;5022840;28;20408;-78
2022/12/02 03:22:50;;;;;;;85.70;40.80;;;5.50;55.00;;;;;;5025908;28;20719;-76
2022/12/02 03:25:16;;;;;;;85.43;40.28;;;5.50;55.80;;;;;;5029665;28;20397;-76
2022/12/02 03:27:42;;;;;;;83.65;37.08;;;5.40;57.20;;;;;;5030659;28;20445;-78
2022/12/02 03:30:08;;;;;;;83.97;39.35;;;5.50;56.50;;;;;;5032155;28;20404;-78
2022/12/02 03:32:35;;;;;;;95.40;42.53;;;5.40;57.00;;;;;;5031988;28;20396;-77
2022/12/02 03:35:01;;;;;;;94.03;41.60;;;5.50;60.10;;;;;;5035912;28;20401;-76
2022/12/02 03:37:27;;;;;;;100.25;44.50;;;5.50;57.30;;;;;;5036194;28;20396;-75
2022/12/02 03:39:53;;;;;;;104.95;44.83;;;5.40;58.00;;;;;;5037899;28;20396;-76
2022/12/02 03:42:19;;;;;;;97.28;43.55;;;5.40;60.80;;;;;;5035491;28;20397;-77
2022/12/02 03:44:45;;;;;;;99.47;41.58;;;5.60;58.20;;;;;;5036573;28;20453;-76
2022/12/02 03:47:11;;;;;;;92.35;39.35;;;5.60;54.70;;;;;;5050880;28;20400;-78
2022/12/02 03:49:37;;;;;;;89.50;39.40;;;5.60;53.60;;;;;;5030438;28;20460;-77
2022/12/02 03:52:03;;;;;;;88.30;38.88;;;5.50;56.20;;;;;;5036261;28;20400;-78
2022/12/02 03:54:29;;;;;;;101.78;42.08;;;5.50;56.60;;;;;;5019859;28;20420;-77
2022/12/02 03:56:54;;;;;;;95.82;41.17;;;5.50;55.90;;;;;;5020490;28;20455;-77
2022/12/02 03:59:22;;;;;;;101.68;41.90;;;5.50;57.90;;;;;;5020869;28;20404;-76
2022/12/02 04:01:48;;;;;;;100.65;42.08;;;5.50;55.10;;;;;;5044235;28;20405;-77
2022/12/02 04:04:14;;;;;;;99.00;42.27;;;5.50;55.50;;;;;;5027718;28;20757;-76
2022/12/02 04:06:40;;;;;;;91.40;40.23;;;5.40;58.40;;;;;;5028598;28;20467;-75
2022/12/02 04:09:05;;;;;;;111.97;44.05;;;5.30;59.10;;;;;;5029123;28;20461;-77
2022/12/02 04:11:31;;;;;;;100.80;41.90;;;5.40;59.20;;;;;;5024111;28;20396;-77
2022/12/02 04:13:56;;;;;;;95.13;40.50;;;5.40;58.30;;;;;;5022736;28;20415;-77
2022/12/02 04:16:22;;;;;;;98.17;39.73;;;5.50;59.20;;;;;;5025958;28;20394;-77
2022/12/02 04:18:47;;;;;;;92.43;39.10;;;5.40;58.80;;;;;;5018271;28;20433;-77
2022/12/02 04:21:13;;;;;;;91.40;40.50;;;5.40;59.10;;;;;;5019737;28;20484;-78
2022/12/02 04:23:39;;;;;;;91.95;38.15;;;5.50;60.00;;;;;;5018783;28;20412;-79
2022/12/02 04:26:05;;;;;;;88.15;38.08;;;5.50;57.70;;;;;;5026532;28;20423;-77
2022/12/02 04:28:30;;;;;;;94.88;38.05;;;5.40;58.30;;;;;;5030673;28;20463;-76
2022/12/02 04:30:56;;;;;;;90.77;40.30;;;5.40;57.10;;;;;;5028079;28;20405;-77
2022/12/02 04:33:22;;;;;;;89.97;38.10;;;5.50;57.30;;;;;;5028183;28;20418;-77
2022/12/02 04:35:47;;;;;;;86.60;37.57;;;5.50;56.20;;;;;;5026820;28;20471;-77
2022/12/02 04:38:13;;;;;;;89.88;39.38;;;5.40;57.00;;;;;;5042235;28;20396;-77
2022/12/02 04:40:39;;;;;;;93.15;39.45;;;5.40;61.50;;;;;;5028240;28;20412;-77
2022/12/02 04:43:05;;;;;;;90.05;38.00;;;5.40;61.80;;;;;;5022538;28;20408;-76
2022/12/02 04:45:30;;;;;;;90.80;38.83;;;5.40;58.70;;;;;;5019359;28;20442;-77
2022/12/02 04:47:56;;;;;;;92.23;40.77;;;5.50;59.00;;;;;;5017101;28;20389;-77
2022/12/02 04:50:21;;;;;;;88.30;38.03;;;5.40;61.30;;;;;;5017747;28;20475;-78
2022/12/02 04:52:47;;;;;;;99.20;40.33;;;5.50;58.40;;;;;;5018058;28;20385;-79
2022/12/02 04:55:12;;;;;;;88.27;37.83;;;5.50;59.60;;;;;;5018728;28;20777;-77
2022/12/02 04:57:38;;;;;;;89.20;38.47;;;5.50;59.10;;;;;;5019985;28;20428;-77
2022/12/02 05:00:05;;;;;;;95.67;38.57;;;5.50;57.90;;;;;;5017494;28;20403;-78
2022/12/02 05:02:30;;;;;;;96.78;38.67;;;5.50;58.10;;;;;;5022309;28;20759;-77
2022/12/02 05:04:56;;;;;;;96.80;38.43;;;5.50;57.90;;;;;;5020605;28;20401;-77
2022/12/02 05:07:22;;;;;;;99.30;40.73;;;5.40;59.20;;;;;;5017905;28;20477;-77
2022/12/02 05:09:47;;;;;;;105.10;40.50;;;5.40;59.70;;;;;;5024084;28;20901;-78
2022/12/02 05:12:13;;;;;;;93.67;38.83;;;5.50;60.00;;;;;;5025689;28;20396;-78
2022/12/02 05:14:38;;;;;;;95.97;39.42;;;5.50;59.30;;;;;;5018049;28;20388;-77
2022/12/02 05:17:04;;;;;;;97.80;39.60;;;5.50;58.60;;;;;;5021737;28;20389;-77
2022/12/02 05:19:30;;;;;;;97.88;39.55;;;5.50;58.80;;;;;;5027846;28;20683;-78
2022/12/02 05:21:55;;;;;;;89.63;39.05;;;5.50;59.00;;;;;;5023009;28;20405;-77
2022/12/02 05:24:21;;;;;;;102.32;38.65;;;5.50;60.50;;;;;;5042226;28;20424;-77
2022/12/02 05:26:46;;;;;;;87.35;37.40;;;5.50;60.10;;;;;;5025939;28;20381;-78
2022/12/02 05:29:12;;;;;;;88.97;37.63;;;5.50;59.50;;;;;;5022473;28;20396;-76
2022/12/02 05:31:37;;;;;;;87.90;37.13;;;5.40;61.10;;;;;;5021035;28;20483;-77
2022/12/02 05:34:03;;;;;;;86.90;37.40;;;5.50;59.30;;;;;;5022825;28;20571;-77
2022/12/02 05:36:29;;;;;;;83.70;36.83;;;5.50;59.30;;;;;;5020464;28;20393;-76
2022/12/02 05:38:54;;;;;;;86.00;36.23;;;5.50;58.60;;;;;;5018106;28;20413;-77
2022/12/02 05:41:20;;;;;;;99.83;38.90;;;5.60;57.90;;;;;;5016673;28;20870;-78
2022/12/02 05:43:45;;;;;;;96.10;38.67;;;5.50;59.20;;;;;;5018922;28;20388;-78
2022/12/02 05:46:19;;;;;;;95.40;36.10;;;5.50;60.70;;;;;;5021454;28;20440;-78
2022/12/02 05:48:46;;;;;;;91.55;38.28;;;5.50;59.80;;;;;;5021689;28;20400;-78
2022/12/02 05:51:18;;;;;;;100.93;36.70;;;5.50;60.00;;;;;;5023450;28;20464;-77
2022/12/02 05:53:45;;;;;;;92.80;36.67;;;5.50;59.60;;;;;;5020972;28;20402;-78
2022/12/02 05:56:26;;;;;;;96.60;37.72;;;5.50;60.40;;;;;;5023739;28;20403;-78
2022/12/02 05:59:00;;;;;;;99.05;38.58;;;5.40;62.00;;;;;;5019568;28;21737;-77
2022/12/02 06:01:36;;;;;;;84.95;34.67;;;5.40;63.30;;;;;;5019934;28;20397;-78
2022/12/02 06:04:03;;;;;;;86.57;35.50;;;5.50;60.70;;;;;;5020646;28;20902;-76
2022/12/02 06:06:32;;;;;;;104.38;36.55;;;5.60;61.50;;;;;;5018301;28;20458;-77
2022/12/02 06:08:59;;;;;;;83.53;34.97;;;5.60;60.70;;;;;;5015174;28;20847;-78
2022/12/02 06:11:32;;;;;;;90.85;37.65;;;5.60;59.80;;;;;;5014298;28;20888;-77
2022/12/02 06:14:02;;;;;;;79.63;33.38;;;5.60;60.70;;;;;;5016398;28;21046;-78
2022/12/02 06:16:30;;;;;;;84.07;34.50;;;5.70;59.20;;;;;;5019094;28;20403;-78
2022/12/02 06:18:58;;;;;;;90.78;35.95;;;5.70;59.90;;;;;;5033413;28;20770;-77
2022/12/02 06:21:25;;;;;;;94.85;35.50;;;5.50;63.10;;;;;;5031407;28;20420;-77
2022/12/02 06:23:54;;;;;;;89.30;33.37;;;5.50;61.90;;;;;;5017338;28;20415;-78
2022/12/02 06:26:20;;;;;;;89.57;35.30;;;5.60;59.60;;;;;;5019480;28;20428;-78
2022/12/02 06:28:55;;;;;;;82.28;34.92;;;5.60;61.10;;;;;;5018262;28;20408;-78
2022/12/02 06:31:29;;;;;;;84.93;34.38;;;5.60;62.10;;;;;;5016845;28;20388;-77
2022/12/02 06:33:58;;;;;;;83.05;35.42;;;5.60;61.10;;;;;;5033068;28;20412;-75
2022/12/02 06:36:30;;;;;;;81.68;32.58;;;5.60;62.80;;;;;;5031782;28;20577;-77
2022/12/02 06:39:02;;;;;;;82.97;31.50;;;5.60;62.50;;;;;;5032054;28;20377;-76
2022/12/02 06:41:30;;;;;;;80.95;32.97;;;5.60;60.40;;;;;;5035608;28;20384;-78
2022/12/02 06:46:44;;;;;;;81.00;32.50;;;5.50;62.00;;;;;;5028213;28;20821;-76
2022/12/02 06:49:17;;;;;;;77.68;31.52;;;5.40;62.50;;;;;;5021192;28;20412;-76
2022/12/02 06:51:43;;;;;;;81.72;33.53;;;5.40;63.80;;;;;;5034698;28;20396;-78
2022/12/02 06:54:20;;;;;;;85.97;33.20;;;5.40;68.40;;;;;;5022917;28;20392;-77
2022/12/02 06:56:47;;;;;;;87.78;34.42;;;5.40;69.20;;;;;;5020024;28;20963;-77
2022/12/02 06:59:17;;;;;;;85.53;34.83;;;5.40;67.80;;;;;;5020375;28;20388;-77
2022/12/02 07:01:43;;;;;;;87.18;35.03;;;5.50;67.10;;;;;;5016006;28;20413;-77
2022/12/02 07:04:09;;;;;;;92.72;36.42;;;5.50;67.10;;;;;;5017623;28;20476;-77
2022/12/02 07:06:43;;;;;;;98.47;37.75;;;5.50;68.40;;;;;;5018082;28;20413;-77
2022/12/02 07:09:17;;;;;;;88.22;34.90;;;5.50;68.30;;;;;;5018482;28;20392;-77
2022/12/02 07:11:49;;;;;;;97.22;37.90;;;5.60;66.80;;;;;;5018378;28;20399;-77
2022/12/02 07:14:46;;;;;;;94.95;37.70;;;5.50;66.30;;;;;;5019494;28;20411;-77
2022/12/02 07:17:23;;;;;;;94.15;37.65;;;5.40;68.90;;;;;;5019441;28;20391;-77
2022/12/02 07:20:31;;;;;;;94.35;36.45;;;5.60;67.80;;;;;;5024555;28;20427;-77
2022/12/02 07:23:10;;;;;;;93.82;38.13;;;5.70;64.70;;;;;;5004568;28;20410;-77
2022/12/02 07:25:40;;;;;;;120.35;41.38;;;5.70;63.30;;;;;;5006911;28;20798;-76
2022/12/02 07:28:36;;;;;;;117.68;43.42;;;5.50;62.50;;;;;;5006261;28;20391;-77
2022/12/02 07:31:23;;;;;;;115.60;43.38;;;5.40;66.90;;;;;;5013304;28;20408;-77
2022/12/02 07:33:49;;;;;;;118.95;44.85;;;5.30;70.40;;;;;;5026000;28;20396;-77
2022/12/02 07:36:15;;;;;;;120.57;44.65;;;5.30;70.30;;;;;;5024672;28;20422;-77
2022/12/02 07:38:40;;;;;;;119.05;43.45;;;5.50;69.50;;;;;;5021433;28;20385;-78
2022/12/02 07:41:06;;;;;;;122.60;43.97;;;5.50;65.90;;;;;;5017407;28;20878;-77
2022/12/02 07:43:31;;;;;;;126.23;45.23;;;5.50;64.30;;;;;;5019844;28;20409;-78
2022/12/02 07:45:57;;;;;;;141.23;46.85;;;5.50;66.90;;;;;;5021706;28;20407;-78
2022/12/02 07:48:23;;;;;;;124.35;44.35;;;5.40;66.80;;;;;;5008808;28;20513;-77
2022/12/02 07:50:49;;;;;;;146.10;49.53;;;5.50;66.50;;;;;;5024167;28;20385;-78
2022/12/02 07:53:14;;;;;;;143.17;48.60;;;5.40;67.40;;;;;;5020753;28;20455;-79
2022/12/02 07:55:40;;;;;;;145.68;49.80;;;5.40;68.90;;;;;;5019904;28;20384;-79
2022/12/02 07:58:06;;;;;;;143.38;49.20;;;5.40;67.80;;;;;;5018822;28;20447;-79
2022/12/02 08:00:31;;;;;;;148.32;51.40;;;5.30;68.50;;;;;;5018070;28;20866;-77
2022/12/02 08:02:57;;;;;;;144.07;48.50;;;5.40;69.30;;;;;;5019584;28;20475;-78
2022/12/02 08:05:23;;;;;;;158.10;51.07;;;5.30;69.10;;;;;;5019892;28;20454;-78
2022/12/02 08:07:49;;;;;;;148.60;51.35;;;5.30;68.30;;;;;;5021134;28;20870;-78
2022/12/02 08:10:15;;;;;;;148.73;49.17;;;5.30;69.70;;;;;;5018773;28;20393;-77
2022/12/02 08:12:41;;;;;;;154.57;55.10;;;5.30;70.40;;;;;;5022294;28;20406;-78
2022/12/02 08:15:10;;;;;;;145.88;49.50;;;5.30;71.70;;;;;;5037720;28;20871;-77
2022/12/02 08:17:36;;;;;;;137.75;47.25;;;5.30;69.90;;;;;;5025212;28;20405;-74
2022/12/02 08:20:04;;;;;;;128.93;45.05;;;5.30;70.40;;;;;;5017446;28;20407;-78
2022/12/02 08:22:30;;;;;;;134.65;46.65;;;5.40;66.60;;;;;;5017290;28;20418;-76
2022/12/02 08:24:55;;;;;;;141.17;49.40;;;5.40;66.80;;;;;;5017653;28;20385;-78
2022/12/02 08:27:21;;;;;;;138.80;46.27;;;5.40;67.80;;;;;;5016557;28;20449;-77
2022/12/02 08:29:48;;;;;;;137.20;49.28;;;5.40;66.40;;;;;;5023340;28;20384;-77
2022/12/02 08:32:15;;;;;;;119.90;45.83;;;5.40;68.00;;;;;;5020361;28;20802;-76
2022/12/02 08:34:41;;;;;;;129.13;48.17;;;5.50;66.90;;;;;;5017907;28;20845;-73
2022/12/02 08:37:07;;;;;;;129.32;47.33;;;5.50;67.50;;;;;;5022732;28;20411;-75
2022/12/02 08:39:32;;;;;;;119.03;44.10;;;5.50;66.90;;;;;;5026095;28;20797;-75
2022/12/02 08:41:58;;;;;;;118.63;43.63;;;5.60;63.30;;;;;;5030250;28;20409;-74
2022/12/02 08:44:24;;;;;;;121.13;48.58;;;5.50;64.10;;;;;;5028218;28;20405;-75
2022/12/02 08:46:49;;;;;;;118.25;42.10;;;5.60;65.70;;;;;;5017803;28;20908;-75
2022/12/02 08:49:15;;;;;;;119.43;42.57;;;5.50;62.70;;;;;;5020532;28;20396;-75
2022/12/02 08:51:40;;;;;;;114.27;41.80;;;5.50;63.30;;;;;;5015455;28;20456;-74
2022/12/02 08:54:06;;;;;;;114.53;42.00;;;5.50;63.90;;;;;;5012605;28;20403;-75
2022/12/02 08:56:32;;;;;;;118.83;43.27;;;5.40;63.80;;;;;;5028526;23;20393;-72
2022/12/02 08:58:57;;;;;;;108.20;42.47;;;5.40;64.70;;;;;;5021994;28;20393;-74
2022/12/02 09:01:23;;;;;;;95.75;39.40;;;5.40;64.00;;;;;;5021400;28;20397;-73
2022/12/02 09:03:48;;;;;;;110.90;42.65;;;5.30;63.30;;;;;;5032831;28;20381;-72
2022/12/02 09:06:14;;;;;;;98.13;40.00;;;5.40;65.20;;;;;;5030749;28;20401;-71
2022/12/02 09:08:40;;;;;;;98.60;40.20;;;5.50;64.00;;;;;;5034617;28;20414;-72
2022/12/02 09:11:05;;;;;;;91.27;38.00;;;5.50;61.80;;;;;;5031439;28;20408;-73
2022/12/02 09:13:31;;;;;;;98.77;40.17;;;5.50;61.70;;;;;;5029764;28;20457;-72
2022/12/02 09:15:56;;;;;;;95.80;40.20;;;5.60;62.70;;;;;;5014591;28;20393;-73
2022/12/02 09:18:23;;;;;;;102.03;42.30;;;5.60;60.90;;;;;;5012347;28;20384;-73
2022/12/02 09:20:49;;;;;;;95.25;38.75;;;5.60;61.80;;;;;;5012395;28;20404;-72
2022/12/02 09:23:15;;;;;;;100.37;42.40;;;5.70;60.60;;;;;;5012237;28;20404;-73
2022/12/02 09:25:40;;;;;;;104.67;42.70;;;5.70;61.30;;;;;;5012369;28;20385;-71
2022/12/02 09:28:06;;;;;;;89.30;38.87;;;5.80;61.80;;;;;;5011130;28;20396;-73
2022/12/02 09:30:32;;;;;;;82.18;35.78;;;5.80;59.90;;;;;;5011466;28;20973;-72
2022/12/02 09:32:58;;;;;;;97.40;38.90;;;5.80;58.00;;;;;;5011691;28;20480;-73
2022/12/02 09:35:23;;;;;;;91.17;37.33;;;5.70;59.30;;;;;;5012894;28;20400;-73
2022/12/02 09:37:49;;;;;;;87.17;36.10;;;5.70;58.40;;;;;;5011904;28;20675;-72
2022/12/02 09:40:15;;;;;;;88.10;36.30;;;5.60;58.60;;;;;;5011829;28;20397;-73
2022/12/02 09:42:41;;;;;;;87.68;37.20;;;5.60;60.00;;;;;;5012091;28;20504;-73
2022/12/02 09:45:07;;;;;;;84.22;34.95;;;5.60;60.30;;;;;;5010114;28;20415;-72
2022/12/02 09:47:33;;;;;;;87.70;35.60;;;5.60;57.90;;;;;;5010926;28;20388;-72
2022/12/02 09:49:58;;;;;;;83.30;37.07;;;5.60;59.70;;;;;;5011574;28;20443;-72
2022/12/02 09:52:26;;;;;;;84.85;35.38;;;5.50;60.00;;;;;;5010751;28;20885;-74
2022/12/02 09:54:56;;;;;;;75.27;35.53;;;5.60;60.70;;;;;;5010441;28;20393;-73
2022/12/02 09:57:26;;;;;;;77.75;33.95;;;5.60;60.30;;;;;;5011118;28;20401;-72
2022/12/02 09:59:52;;;;;;;89.90;41.03;;;5.70;58.70;;;;;;5009804;28;20422;-72
2022/12/02 10:02:43;;;;;;;71.47;30.98;;;5.70;58.10;;;;;;5010495;28;20432;-72
2022/12/02 10:05:16;;;;;;;79.72;36.50;;;5.70;55.70;;;;;;5011007;28;20416;-72
2022/12/02 10:07:43;;;;;;;88.20;38.40;;;5.70;58.90;;;;;;5010788;28;20389;-72
2022/12/02 10:10:11;;;;;;;81.60;34.10;;;5.70;62.60;;;;;;5011073;28;20399;-73
2022/12/02 10:12:37;;;;;;;75.45;34.63;;;5.80;59.50;;;;;;5010187;28;20401;-73
2022/12/02 10:15:03;;;;;;;80.43;33.17;;;5.90;56.30;;;;;;5011123;28;20391;-72
2022/12/02 10:17:29;;;;;;;70.68;33.35;;;6.00;55.10;;;;;;5010992;28;20388;-72
2022/12/02 10:19:55;;;;;;;75.30;34.10;;;5.90;54.20;;;;;;5009700;28;20741;-71
2022/12/02 10:22:21;;;;;;;77.22;34.50;;;5.80;55.70;;;;;;5010519;28;20432;-71
2022/12/02 10:24:47;;;;;;;71.88;33.15;;;5.80;56.40;;;;;;5010925;28;20391;-72
2022/12/02 10:27:29;;;;;;;72.82;32.40;;;5.70;55.40;;;;;;5010796;28;20427;-72
2022/12/02 10:30:17;;;;;;;73.00;33.25;;;5.70;55.70;;;;;;5010585;28;20380;-72
2022/12/02 10:33:00;;;;;;;63.50;30.35;;;5.70;55.60;;;;;;5010354;28;20382;-72
2022/12/02 10:35:44;;;;;;;74.55;35.67;;;5.70;53.70;;;;;;5011522;28;20385;-74
2022/12/02 10:38:26;;;;;;;75.18;35.85;;;5.60;55.90;;;;;;5011243;28;20385;-74
2022/12/02 10:40:52;;;;;;;68.45;33.30;;;5.70;58.00;;;;;;5010845;28;20374;-73
2022/12/02 10:43:19;;;;;;;68.60;34.57;;;5.80;55.70;;;;;;5010986;28;20890;-74
2022/12/02 10:45:57;;;;;;;65.55;33.25;;;5.80;55.10;;;;;;5011943;28;20391;-73
2022/12/02 10:48:23;;;;;;;66.80;31.13;;;5.90;53.70;;;;;;5010735;28;20766;-72
2022/12/02 10:50:48;;;;;;;64.07;32.00;;;5.80;52.60;;;;;;5010959;28;20384;-73
2022/12/02 10:53:16;;;;;;;72.30;35.17;;;5.80;53.20;;;;;;5010010;28;20849;-72
2022/12/02 10:55:43;;;;;;;75.00;35.95;;;5.70;54.40;;;;;;5010561;28;20505;-72
2022/12/02 10:58:20;;;;;;;78.43;39.53;;;5.80;56.30;;;;;;5010824;28;20776;-73
2022/12/02 11:00:46;;;;;;;62.53;34.28;;;5.80;58.60;;;;;;5011369;28;20450;-72
2022/12/02 11:03:12;;;;;;;68.85;36.63;;;5.90;55.90;;;;;;5010286;28;20905;-73
2022/12/02 11:05:39;;;;;;;59.83;31.80;;;5.90;56.80;;;;;;5011053;28;20395;-72
2022/12/02 11:08:15;;;;;;;59.23;30.87;;;6.00;53.00;;;;;;5011164;28;20380;-74
2022/12/02 11:10:43;;;;;;;64.63;34.70;;;5.90;53.20;;;;;;5011045;28;20389;-73
2022/12/02 11:13:12;;;;;;;60.47;31.40;;;5.90;54.30;;;;;;5010323;28;20467;-72
2022/12/02 11:15:51;;;;;;;57.80;30.27;;;5.90;52.20;;;;;;5010807;28;20400;-72
2022/12/02 11:18:29;;;;;;;70.22;34.50;;;5.80;52.00;;;;;;5011821;28;20464;-72
2022/12/02 11:21:00;;;;;;;74.22;36.08;;;5.90;54.80;;;;;;5014034;28;20401;-71
2022/12/02 11:23:30;;;;;;;69.47;35.40;;;5.90;56.80;;;;;;5013793;28;20405;-72
2022/12/02 11:26:03;;;;;;;68.15;35.33;;;6.10;57.00;;;;;;5014107;28;20385;-73
2022/12/02 11:28:29;;;;;;;58.80;29.95;;;6.00;56.40;;;;;;5013499;28;20388;-72
2022/12/02 11:31:10;;;;;;;59.10;29.42;;;5.90;50.90;;;;;;5013152;28;20385;-74
2022/12/02 11:33:52;;;;;;;58.92;30.63;;;5.80;51.80;;;;;;5014036;28;20424;-72
2022/12/02 11:36:26;;;;;;;58.88;32.15;;;5.80;52.40;;;;;;5013906;28;20385;-73
2022/12/02 11:38:52;;;;;;;67.78;34.75;;;5.70;53.30;;;;;;5013985;28;20385;-73
2022/12/02 11:41:19;;;;;;;65.45;33.83;;;5.70;57.10;;;;;;5012766;28;20388;-74
2022/12/02 11:43:45;;;;;;;67.45;32.80;;;5.80;54.70;;;;;;5012314;28;20499;-72
2022/12/02 11:46:14;;;;;;;60.30;32.08;;;5.90;51.80;;;;;;5013469;28;20953;-73
2022/12/02 11:48:52;;;;;;;69.88;36.30;;;5.90;51.20;;;;;;5013615;28;20385;-73
2022/12/02 11:51:39;;;;;;;68.60;35.38;;;6.00;52.90;;;;;;5012708;28;20385;-73
2022/12/02 11:54:15;;;;;;;54.60;29.00;;;6.10;53.60;;;;;;5013388;28;20385;-72
2022/12/02 11:56:43;;;;;;;66.40;34.93;;;6.20;47.80;;;;;;5015056;28;20935;-72
2022/12/02 11:59:26;;;;;;;62.20;32.83;;;6.20;51.90;;;;;;5013584;28;20396;-73
2022/12/02 12:02:26;;;;;;;60.85;30.75;;;6.30;50.70;;;;;;5012708;28;20459;-72
2022/12/02 12:05:18;;;;;;;58.22;29.98;;;6.30;47.30;;;;;;5013718;28;20423;-72
2022/12/02 12:07:46;;;;;;;63.35;30.70;;;6.30;47.90;;;;;;5010385;28;20393;-73
2022/12/02 12:10:26;;;;;;;58.97;31.17;;;6.20;46.40;;;;;;5013186;28;20381;-73
2022/12/02 12:13:10;;;;;;;58.75;31.48;;;6.00;47.30;;;;;;5013009;28;20789;-73
2022/12/02 12:15:58;;;;;;;66.30;32.08;;;6.00;47.80;;;;;;5013828;28;20394;-73
2022/12/02 12:18:43;;;;;;;62.30;31.58;;;5.90;48.40;;;;;;5014263;28;20956;-73
2022/12/02 12:21:09;;;;;;;74.78;34.65;;;5.90;48.10;;;;;;5012761;28;20472;-73
2022/12/02 12:23:43;;;;;;;61.17;31.88;;;5.90;50.40;;;;;;5012681;28;20495;-72
2022/12/02 12:26:30;;;;;;;63.50;31.60;;;5.90;48.70;;;;;;5013694;28;20381;-71
2022/12/02 12:29:00;;;;;;;63.72;32.13;;;5.90;47.70;;;;;;5017476;28;20380;-73
2022/12/02 12:31:26;;;;;;;70.60;35.15;;;5.90;48.20;;;;;;5013563;28;20881;-73
2022/12/02 12:33:52;;;;;;;67.75;32.42;;;5.90;52.40;;;;;;5012804;28;20389;-73
2022/12/02 12:36:17;;;;;;;67.40;33.17;;;6.10;49.00;;;;;;5012760;28;20424;-74
2022/12/02 12:38:43;;;;;;;62.90;32.27;;;6.10;47.60;;;;;;5013098;28;20392;-73
2022/12/02 12:41:08;;;;;;;62.77;31.60;;;6.10;46.70;;;;;;5012191;28;20401;-72
2022/12/02 12:43:34;;;;;;;64.50;32.07;;;6.00;47.00;;;;;;5012662;28;20960;-72
2022/12/02 12:45:59;;;;;;;68.10;33.87;;;5.90;47.80;;;;;;5012839;28;20865;-73
2022/12/02 12:48:25;;;;;;;66.90;33.20;;;5.90;48.40;;;;;;5013062;28;20389;-72
2022/12/02 12:50:51;;;;;;;72.60;34.33;;;5.80;47.90;;;;;;5013218;28;20396;-73